createdAt,value
2019-02-24T00:01:41.413Z,57.04
2019-02-24T00:04:08.585Z,57.69
2019-02-24T00:06:35.782Z,57.87
2019-02-24T00:09:03.866Z,57.73
2019-02-24T00:11:31.078Z,57.99
2019-02-24T00:13:58.265Z,58.24
2019-02-24T00:16:25.541Z,58.38
2019-02-24T00:18:52.727Z,58.48
2019-02-24T00:21:20.233Z,58.58
2019-02-24T00:23:47.423Z,58.59
2019-02-24T00:26:14.581Z,58.69
2019-02-24T00:28:41.784Z,58.73
2019-02-24T00:31:08.962Z,58.66
2019-02-24T00:33:36.120Z,58.65
2019-02-24T00:36:03.328Z,58.61
2019-02-24T00:38:30.517Z,58.68
2019-02-24T00:40:57.662Z,58.93
2019-02-24T00:43:26.333Z,58.99
2019-02-24T00:45:53.537Z,59.14
2019-02-24T00:48:20.972Z,59.26
2019-02-24T00:50:48.095Z,59.40
2019-02-24T00:53:15.270Z,59.55
2019-02-24T00:55:42.440Z,59.63
2019-02-24T00:58:15.970Z,59.68
2019-02-24T01:00:38.741Z,59.79
2019-02-24T01:03:05.821Z,59.88
2019-02-24T01:05:33.206Z,60.34
2019-02-24T01:08:00.389Z,60.62
2019-02-24T01:10:27.554Z,60.94
2019-02-24T01:12:54.756Z,60.98
2019-02-24T01:15:22.282Z,60.98
2019-02-24T01:17:49.297Z,60.78
2019-02-24T01:20:16.442Z,61.07
2019-02-24T01:22:43.644Z,61.11
2019-02-24T01:25:10.800Z,61.50
2019-02-24T01:27:38.004Z,61.77
2019-02-24T01:30:05.622Z,61.95
2019-02-24T01:32:32.769Z,62.22
2019-02-24T01:34:59.922Z,62.13
2019-02-24T01:37:27.212Z,62.16
2019-02-24T01:39:54.369Z,62.03
2019-02-24T01:42:21.536Z,61.75
2019-02-24T01:44:48.748Z,61.48
2019-02-24T01:47:15.915Z,61.60
2019-02-24T01:49:43.368Z,61.75
2019-02-24T01:52:10.580Z,61.57
2019-02-24T01:54:37.721Z,61.68
2019-02-24T01:57:04.918Z,61.65
2019-02-24T01:59:32.101Z,61.72
2019-02-24T02:01:59.296Z,61.79
2019-02-24T02:04:26.716Z,61.67
2019-02-24T02:06:53.906Z,61.60
2019-02-24T02:09:21.071Z,61.39
2019-02-24T02:11:48.251Z,60.94
2019-02-24T02:14:15.472Z,60.65
2019-02-24T02:16:42.677Z,60.03
2019-02-24T02:19:09.851Z,59.66
2019-02-24T02:21:37.046Z,59.70
2019-02-24T02:24:04.223Z,60.02
2019-02-24T02:26:31.404Z,60.24
2019-02-24T02:28:58.615Z,60.01
2019-02-24T02:31:26.037Z,59.74
2019-02-24T02:33:53.313Z,59.96
2019-02-24T02:36:20.507Z,59.89
2019-02-24T02:38:47.690Z,59.66
2019-02-24T02:41:14.872Z,59.74
2019-02-24T02:43:42.408Z,59.53
2019-02-24T02:46:09.565Z,59.35
2019-02-24T02:48:36.716Z,59.52
2019-02-24T02:51:03.904Z,59.75
2019-02-24T02:53:31.099Z,59.94
2019-02-24T02:55:58.270Z,60.02
2019-02-24T02:58:25.941Z,59.34
2019-02-24T03:00:53.092Z,58.72
2019-02-24T03:03:20.336Z,58.92
2019-02-24T03:05:58.468Z,58.71
2019-02-24T03:08:44.501Z,58.78
2019-02-24T03:11:11.716Z,58.68
2019-02-24T03:13:38.864Z,58.36
2019-02-24T03:16:06.036Z,58.67
2019-02-24T03:18:33.243Z,58.52
2019-02-24T03:21:00.288Z,58.13
2019-02-24T03:23:27.752Z,57.70
2019-02-24T03:25:54.954Z,57.84
2019-02-24T03:28:22.115Z,58.08
2019-02-24T03:30:49.271Z,57.96
2019-02-24T03:33:16.455Z,57.77
2019-02-24T03:35:43.487Z,57.79
2019-02-24T03:38:10.656Z,57.25
2019-02-24T03:40:37.943Z,57.32
2019-02-24T03:43:05.098Z,57.52
2019-02-24T03:45:32.292Z,57.56
2019-02-24T03:47:59.371Z,57.59
2019-02-24T03:50:26.547Z,57.22
2019-02-24T03:52:53.717Z,56.89
2019-02-24T03:55:20.943Z,56.09
2019-02-24T03:57:48.084Z,56.58
2019-02-24T04:02:55.716Z,56.77
2019-02-24T04:05:42.400Z,56.48
2019-02-24T04:08:09.609Z,56.22
2019-02-24T04:10:36.760Z,56.30
2019-02-24T04:13:03.936Z,56.56
2019-02-24T04:15:50.572Z,56.49
2019-02-24T04:18:37.228Z,56.04
2019-02-24T04:24:37.945Z,55.01
2019-02-24T04:27:36.914Z,54.27
2019-02-24T04:33:37.739Z,55.13
2019-02-24T04:36:04.823Z,56.31
2019-02-24T04:38:31.980Z,56.07
2019-02-24T04:44:24.231Z,55.62
2019-02-24T04:46:51.465Z,55.64
2019-02-24T04:52:26.946Z,55.47
2019-02-24T04:54:54.171Z,55.39
2019-02-24T04:57:21.348Z,55.22
2019-02-24T05:00:29.358Z,55.39
2019-02-24T05:02:56.414Z,55.31
2019-02-24T05:05:23.578Z,55.13
2019-02-24T05:07:50.778Z,54.79
2019-02-24T05:10:17.949Z,54.59
2019-02-24T05:18:47.819Z,54.40
2019-02-24T05:21:36.251Z,54.25
2019-02-24T05:24:03.477Z,54.14
2019-02-24T05:26:30.628Z,53.96
2019-02-24T05:28:57.850Z,53.54
2019-02-24T05:31:25.048Z,53.43
2019-02-24T05:33:52.524Z,53.43
2019-02-24T05:36:39.515Z,53.48
2019-02-24T05:39:07.004Z,53.70
2019-02-24T05:42:15.012Z,54.35
2019-02-24T05:51:09.449Z,54.27
2019-02-24T05:53:36.609Z,53.36
2019-02-24T05:56:03.819Z,53.00
2019-02-24T05:58:31.011Z,53.31
2019-02-24T06:00:58.241Z,53.28
2019-02-24T06:03:25.410Z,53.48
2019-02-24T06:06:12.002Z,53.31
2019-02-24T06:11:39.179Z,53.12
2019-02-24T06:14:47.152Z,52.79
2019-02-24T06:20:15.045Z,52.44
2019-02-24T06:22:42.206Z,52.91
2019-02-24T06:25:09.580Z,53.90
2019-02-24T06:27:56.350Z,53.88
2019-02-24T06:30:43.232Z,53.30
2019-02-24T06:37:05.467Z,52.62
2019-02-24T06:39:32.630Z,50.15
2019-02-24T06:41:59.816Z,49.04
2019-02-24T06:44:46.501Z,47.87
2019-02-24T06:47:13.714Z,47.73
2019-02-24T06:49:40.803Z,47.47
2019-02-24T06:52:08.057Z,47.75
2019-02-24T06:57:55.396Z,43.64
2019-02-24T07:00:22.584Z,38.97
2019-02-24T07:02:49.662Z,36.90
2019-02-24T07:05:36.343Z,35.51
2019-02-24T07:08:03.502Z,34.31
2019-02-24T07:10:30.734Z,32.62
2019-02-24T07:15:59.508Z,29.25
2019-02-24T07:18:46.152Z,27.87
2019-02-24T07:21:13.374Z,28.08
2019-02-24T07:23:40.580Z,27.87
2019-02-24T07:26:08.132Z,28.02
2019-02-24T07:28:35.334Z,28.22
2019-02-24T07:31:02.931Z,27.85
2019-02-24T07:36:50.938Z,24.84
2019-02-24T07:39:18.164Z,21.94
2019-02-24T07:44:48.425Z,18.15
2019-02-24T07:47:15.707Z,15.83
2019-02-24T07:49:43.209Z,15.94
2019-02-24T07:52:10.467Z,15.31
2019-02-24T07:54:37.647Z,14.85
2019-02-24T07:57:05.609Z,14.68
2019-02-24T08:02:33.962Z,13.62
2019-02-24T08:05:41.971Z,13.62
2019-02-24T08:08:16.213Z,13.65
2019-02-24T08:10:58.409Z,13.20
2019-02-24T08:13:25.659Z,12.71
2019-02-24T08:19:01.023Z,12.45
2019-02-24T08:21:47.662Z,11.45
2019-02-24T08:24:46.849Z,11.14
2019-02-24T08:27:14.013Z,11.04
2019-02-24T08:29:41.181Z,10.75
2019-02-24T08:35:50.678Z,10.65
2019-02-24T08:38:17.887Z,10.65
2019-02-24T08:43:46.329Z,9.34
2019-02-24T08:49:59.100Z,9.25
2019-02-24T08:58:27.419Z,8.67
2019-02-24T09:00:54.646Z,8.53
2019-02-24T09:03:21.879Z,8.70
2019-02-24T09:06:29.814Z,8.53
2019-02-24T09:08:57.480Z,8.79
2019-02-24T09:12:05.529Z,8.75
2019-02-24T09:14:32.746Z,8.52
2019-02-24T09:16:59.959Z,8.42
2019-02-24T09:19:27.227Z,8.03
2019-02-24T09:22:13.880Z,8.35
2019-02-24T09:27:21.491Z,10.16
2019-02-24T09:29:48.694Z,10.75
2019-02-24T09:32:28.008Z,12.31
2019-02-24T09:38:28.908Z,17.54
2019-02-24T09:40:56.130Z,18.76
2019-02-24T09:43:23.355Z,19.68
2019-02-24T09:45:50.604Z,20.51
2019-02-24T09:54:39.241Z,24.31
2019-02-24T09:57:06.444Z,24.14
2019-02-24T09:59:33.824Z,23.83
2019-02-24T10:02:01.057Z,24.01
2019-02-24T10:04:28.803Z,24.07
2019-02-24T10:06:56.006Z,25.34
2019-02-24T10:09:23.205Z,26.24
2019-02-24T10:11:50.698Z,25.71
2019-02-24T10:14:18.478Z,27.45
2019-02-24T10:16:46.112Z,28.25
2019-02-24T10:19:13.290Z,28.25
2019-02-24T10:21:40.801Z,28.15
2019-02-24T10:24:08.070Z,27.40
2019-02-24T10:26:35.294Z,27.51
2019-02-24T10:29:02.638Z,26.58
2019-02-24T10:31:29.974Z,25.29
2019-02-24T10:33:57.179Z,25.03
2019-02-24T10:36:24.370Z,25.47
2019-02-24T10:38:51.602Z,25.08
2019-02-24T10:41:18.791Z,25.14
2019-02-24T10:43:45.964Z,26.66
2019-02-24T10:46:13.233Z,27.06
2019-02-24T10:48:40.381Z,26.99
2019-02-24T10:51:07.609Z,27.22
2019-02-24T10:53:34.944Z,28.03
2019-02-24T10:56:02.133Z,27.57
2019-02-24T10:58:34.686Z,28.42
2019-02-24T11:00:58.908Z,28.13
2019-02-24T11:03:26.202Z,27.84
2019-02-24T11:05:57.246Z,28.10
2019-02-24T11:08:24.496Z,28.14
2019-02-24T11:10:52.039Z,28.10
2019-02-24T11:13:19.223Z,28.36
2019-02-24T11:15:46.801Z,27.58
2019-02-24T11:18:13.976Z,27.69
2019-02-24T11:20:41.448Z,28.00
2019-02-24T11:23:08.741Z,27.94
2019-02-24T11:25:35.979Z,28.24
2019-02-24T11:28:03.549Z,28.65
2019-02-24T11:30:30.826Z,28.66
2019-02-24T11:32:58.251Z,28.50
2019-02-24T11:35:25.490Z,28.66
2019-02-24T11:37:52.703Z,28.39
2019-02-24T11:40:20.132Z,28.94
2019-02-24T11:42:47.445Z,28.76
2019-02-24T11:45:14.644Z,28.55
2019-02-24T11:47:42.235Z,28.42
2019-02-24T11:50:09.594Z,27.33
2019-02-24T11:52:36.831Z,26.69
2019-02-24T11:55:04.335Z,24.72
2019-02-24T11:57:31.585Z,25.72
2019-02-24T11:59:58.769Z,27.73
2019-02-24T12:02:34.156Z,27.39
2019-02-24T12:04:55.438Z,22.94
2019-02-24T12:07:22.716Z,26.40
2019-02-24T12:09:49.879Z,26.88
2019-02-24T12:12:17.151Z,26.84
2019-02-24T12:14:44.439Z,26.66
2019-02-24T12:17:11.619Z,26.12
2019-02-24T12:19:38.788Z,26.47
2019-02-24T12:22:06.009Z,26.54
2019-02-24T12:24:33.172Z,26.49
2019-02-24T12:27:00.376Z,24.35
2019-02-24T12:29:27.614Z,24.12
2019-02-24T12:31:56.809Z,23.37
2019-02-24T12:34:23.874Z,23.39
2019-02-24T12:36:51.127Z,23.57
2019-02-24T12:39:18.408Z,23.51
2019-02-24T12:41:45.611Z,23.15
2019-02-24T12:44:13.201Z,22.76
2019-02-24T12:46:40.444Z,22.34
2019-02-24T12:49:07.618Z,23.08
2019-02-24T12:51:35.054Z,24.20
2019-02-24T12:54:02.260Z,24.95
2019-02-24T12:56:29.464Z,23.26
2019-02-24T12:58:56.665Z,22.75
2019-02-24T13:01:23.822Z,22.56
2019-02-24T13:03:51.026Z,24.38
2019-02-24T13:06:18.303Z,22.67
2019-02-24T13:08:45.631Z,23.52
2019-02-24T13:11:12.844Z,23.18
2019-02-24T13:13:40.094Z,23.07
2019-02-24T13:16:07.279Z,23.08
2019-02-24T13:18:36.774Z,23.57
2019-02-24T13:21:03.964Z,23.38
2019-02-24T13:23:31.196Z,22.33
2019-02-24T13:25:58.405Z,22.02
2019-02-24T13:28:25.776Z,22.33
2019-02-24T13:30:53.088Z,21.66
2019-02-24T13:33:20.262Z,22.28
2019-02-24T13:35:47.369Z,22.39
2019-02-24T13:38:14.944Z,22.16
2019-02-24T13:40:42.470Z,21.99
2019-02-24T13:43:11.300Z,22.28
2019-02-24T13:45:41.413Z,22.13
2019-02-24T13:48:08.769Z,22.19
2019-02-24T13:50:35.896Z,22.39
2019-02-24T13:53:03.329Z,23.57
2019-02-24T13:55:30.646Z,23.10
2019-02-24T13:57:58.197Z,24.29
2019-02-24T14:00:25.364Z,25.51
2019-02-24T14:02:52.542Z,25.36
2019-02-24T14:05:19.844Z,25.55
2019-02-24T14:07:47.123Z,26.60
2019-02-24T14:10:14.956Z,26.77
2019-02-24T14:12:42.220Z,24.79
2019-02-24T14:15:10.255Z,24.31
2019-02-24T14:17:37.485Z,24.94
2019-02-24T14:20:05.823Z,25.25
2019-02-24T14:22:33.338Z,25.73
2019-02-24T14:25:00.842Z,25.87
2019-02-24T14:27:28.104Z,26.14
2019-02-24T14:29:55.362Z,25.92
2019-02-24T14:32:22.813Z,25.48
2019-02-24T14:34:50.005Z,26.06
2019-02-24T14:37:17.216Z,26.12
2019-02-24T14:39:44.560Z,26.17
2019-02-24T14:42:11.785Z,26.23
2019-02-24T14:44:39.080Z,26.00
2019-02-24T14:47:06.205Z,25.59
2019-02-24T14:49:33.514Z,25.75
2019-02-24T14:52:00.930Z,24.92
2019-02-24T14:54:28.292Z,24.80
2019-02-24T14:56:55.543Z,25.04
2019-02-24T14:59:22.756Z,24.97
2019-02-24T15:01:50.065Z,24.33
2019-02-24T15:04:17.362Z,25.47
2019-02-24T15:06:44.787Z,26.06
2019-02-24T15:09:11.967Z,26.49
2019-02-24T15:11:39.201Z,26.85
2019-02-24T15:14:06.379Z,27.13
2019-02-24T15:16:33.747Z,27.32
2019-02-24T15:19:01.038Z,27.28
2019-02-24T15:21:28.658Z,27.69
2019-02-24T15:23:56.063Z,27.65
2019-02-24T15:26:26.059Z,28.08
2019-02-24T15:28:53.251Z,28.13
2019-02-24T15:31:20.465Z,26.63
2019-02-24T15:33:47.809Z,27.28
2019-02-24T15:36:15.037Z,27.03
2019-02-24T15:38:42.199Z,27.11
2019-02-24T15:41:10.211Z,26.98
2019-02-24T15:43:37.744Z,27.27
2019-02-24T15:46:05.055Z,27.49
2019-02-24T15:48:32.359Z,27.65
2019-02-24T15:50:59.474Z,27.75
2019-02-24T15:53:26.685Z,28.05
2019-02-24T15:55:54.088Z,28.05
2019-02-24T15:58:21.289Z,27.38
2019-02-24T16:00:48.493Z,27.65
2019-02-24T16:03:15.765Z,28.00
2019-02-24T16:05:42.865Z,28.00
2019-02-24T16:08:10.076Z,27.42
2019-02-24T16:10:37.300Z,27.11
2019-02-24T16:13:04.586Z,26.60
2019-02-24T16:15:32.103Z,26.60
2019-02-24T16:17:59.472Z,26.97
2019-02-24T16:20:26.794Z,27.65
2019-02-24T16:22:55.299Z,28.10
2019-02-24T16:25:22.604Z,28.31
2019-02-24T16:27:49.937Z,28.74
2019-02-24T16:30:18.224Z,29.21
2019-02-24T16:32:45.502Z,29.49
2019-02-24T16:35:13.012Z,29.96
2019-02-24T16:37:40.207Z,30.41
2019-02-24T16:40:10.375Z,30.24
2019-02-24T16:42:37.592Z,30.63
2019-02-24T16:45:06.186Z,31.09
2019-02-24T16:47:33.727Z,31.61
2019-02-24T16:50:00.919Z,31.51
2019-02-24T16:52:28.769Z,31.63
2019-02-24T16:54:56.022Z,31.84
2019-02-24T16:57:23.317Z,32.13
2019-02-24T16:59:50.891Z,32.63
2019-02-24T17:02:22.893Z,33.02
2019-02-24T17:04:47.232Z,33.55
2019-02-24T17:07:14.828Z,33.84
2019-02-24T17:09:42.063Z,34.00
2019-02-24T17:12:09.233Z,33.88
2019-02-24T17:14:36.499Z,34.14
2019-02-24T17:17:03.720Z,33.98
2019-02-24T17:19:30.890Z,34.29
2019-02-24T17:21:58.056Z,34.75
2019-02-24T17:24:26.032Z,34.84
2019-02-24T17:26:53.334Z,35.15
2019-02-24T17:29:20.584Z,35.47
2019-02-24T17:31:47.815Z,35.49
2019-02-24T17:34:14.984Z,35.98
2019-02-24T17:36:42.272Z,36.17
2019-02-24T17:39:09.513Z,36.49
2019-02-24T17:41:36.720Z,36.62
2019-02-24T17:44:03.906Z,36.77
2019-02-24T17:46:31.251Z,36.34
2019-02-24T17:48:58.505Z,36.22
2019-02-24T17:51:25.715Z,36.06
2019-02-24T17:53:52.926Z,35.68
2019-02-24T17:56:20.116Z,35.59
2019-02-24T17:58:47.375Z,35.51
2019-02-24T18:01:14.705Z,35.30
2019-02-24T18:03:42.325Z,35.26
2019-02-24T18:06:09.580Z,35.05
2019-02-24T18:08:36.847Z,35.13
2019-02-24T18:11:04.026Z,35.19
2019-02-24T18:13:31.282Z,35.38
2019-02-24T18:15:58.817Z,35.37
2019-02-24T18:18:26.021Z,35.46
2019-02-24T18:20:53.121Z,35.37
2019-02-24T18:23:20.343Z,35.76
2019-02-24T18:25:48.502Z,35.80
2019-02-24T18:28:15.706Z,35.84
2019-02-24T18:34:03.706Z,36.39
2019-02-24T18:36:30.933Z,36.70
2019-02-24T18:38:58.138Z,36.97
2019-02-24T18:41:44.847Z,37.30
2019-02-24T18:47:32.370Z,37.84
2019-02-24T18:50:00.006Z,38.26
2019-02-24T18:52:27.632Z,38.51
2019-02-24T18:54:54.796Z,39.05
2019-02-24T18:57:21.994Z,39.37
2019-02-24T19:00:08.811Z,39.69
2019-02-24T19:02:36.006Z,40.01
2019-02-24T19:05:44.073Z,40.29
2019-02-24T19:08:11.311Z,40.27
2019-02-24T19:11:21.136Z,38.90
2019-02-24T19:17:21.894Z,38.98
2019-02-24T19:22:49.854Z,38.03
2019-02-24T19:28:18.364Z,38.74
2019-02-24T19:30:45.576Z,38.17
2019-02-24T19:33:12.995Z,38.77
2019-02-24T19:38:41.695Z,40.21
2019-02-24T19:41:09.349Z,41.60
2019-02-24T19:43:36.903Z,41.93
2019-02-24T19:46:36.029Z,42.45
2019-02-24T19:49:03.293Z,43.07
2019-02-24T19:51:30.510Z,43.62
2019-02-24T19:53:58.194Z,43.97
2019-02-24T19:56:25.711Z,44.19
2019-02-24T19:58:52.958Z,44.46
2019-02-24T20:01:20.214Z,45.01
2019-02-24T20:03:47.468Z,44.93
2019-02-24T20:06:55.527Z,45.38
2019-02-24T20:12:42.654Z,45.58
2019-02-24T20:18:24.173Z,45.94
2019-02-24T20:20:51.328Z,46.25
2019-02-24T20:23:18.534Z,47.66
2019-02-24T20:25:46.075Z,46.12
2019-02-24T20:33:54.518Z,46.38
2019-02-24T20:36:21.757Z,46.52
2019-02-24T20:38:49.013Z,46.41
2019-02-24T20:41:16.556Z,46.08
2019-02-24T20:43:44.051Z,45.93
2019-02-24T20:46:11.867Z,46.55
2019-02-24T20:48:51.333Z,46.19
2019-02-24T20:51:18.924Z,46.28
2019-02-24T20:53:46.116Z,45.71
2019-02-24T20:56:13.346Z,45.83
2019-02-24T20:58:40.584Z,46.79
2019-02-24T21:01:10.028Z,46.82
2019-02-24T21:03:37.700Z,47.14
2019-02-24T21:06:04.796Z,47.49
2019-02-24T21:11:46.632Z,47.88
2019-02-24T21:14:13.902Z,48.27
2019-02-24T21:16:41.132Z,48.43
2019-02-24T21:19:08.669Z,48.62
2019-02-24T21:21:35.890Z,49.11
2019-02-24T21:24:43.912Z,48.83
2019-02-24T21:27:30.579Z,48.48
2019-02-24T21:29:57.831Z,48.30
2019-02-24T21:32:25.070Z,48.36
2019-02-24T21:34:52.260Z,48.19
2019-02-24T21:43:34.146Z,48.42
2019-02-24T21:49:14.594Z,48.96
2019-02-24T21:51:41.808Z,49.09
2019-02-24T21:54:09.302Z,49.44
2019-02-24T21:56:36.546Z,49.89
2019-02-24T21:59:04.311Z,50.24
2019-02-24T22:01:44.607Z,50.23
2019-02-24T22:04:11.776Z,50.55
2019-02-24T22:06:38.994Z,50.59
2019-02-24T22:09:48.702Z,50.73
2019-02-24T22:18:51.266Z,52.18
2019-02-24T22:21:18.818Z,52.00
2019-02-24T22:26:47.112Z,51.89
2019-02-24T22:29:14.294Z,52.29
2019-02-24T22:34:42.920Z,52.32
2019-02-24T22:37:10.093Z,52.11
2019-02-24T22:40:09.038Z,52.30
2019-02-24T22:42:36.207Z,52.39
2019-02-24T22:45:44.696Z,52.61
2019-02-24T22:48:11.883Z,52.37
2019-02-24T22:51:19.807Z,52.82
2019-02-24T22:53:47.026Z,52.40
2019-02-24T22:56:14.204Z,52.04
2019-02-24T22:58:41.478Z,52.13
2019-02-24T23:01:50.359Z,52.32
2019-02-24T23:04:37.044Z,52.50
2019-02-24T23:10:24.150Z,53.01
2019-02-24T23:12:53.142Z,52.71
2019-02-24T23:15:33.628Z,52.15
2019-02-24T23:18:00.676Z,52.51
2019-02-24T23:20:27.882Z,52.41
2019-02-24T23:22:55.880Z,51.83
2019-02-24T23:28:24.797Z,51.01
2019-02-24T23:30:52.054Z,51.46
2019-02-24T23:33:19.124Z,51.50
2019-02-24T23:35:46.244Z,51.52
2019-02-24T23:38:15.207Z,51.50
2019-02-24T23:40:42.953Z,51.55
2019-02-24T23:43:10.619Z,51.82
2019-02-24T23:45:38.221Z,52.53
2019-02-24T23:48:05.393Z,54.13
2019-02-24T23:50:34.579Z,54.46
2019-02-24T23:53:01.821Z,57.03
2019-02-24T23:55:29.239Z,57.79
2019-02-24T23:57:56.391Z,58.44
